createdAt,value
2023-03-15T00:02:15.598Z,11.70
2023-03-15T00:04:43.478Z,10.50
2023-03-15T00:07:11.592Z,11.10
2023-03-15T00:09:39.511Z,10.90
2023-03-15T00:12:07.835Z,11.30
2023-03-15T00:14:37.005Z,10.40
2023-03-15T00:17:05.223Z,11.00
2023-03-15T00:19:33.450Z,12.80
2023-03-15T00:22:02.797Z,12.60
2023-03-15T00:24:30.804Z,12.60
2023-03-15T00:26:58.664Z,12.70
2023-03-15T00:29:26.670Z,12.60
2023-03-15T00:31:54.489Z,11.50
2023-03-15T00:34:25.846Z,11.60
2023-03-15T00:36:57.558Z,10.90
2023-03-15T00:39:25.840Z,12.20
2023-03-15T00:41:56.924Z,12.80
2023-03-15T00:44:26.489Z,13.40
2023-03-15T00:46:54.571Z,12.80
2023-03-15T00:49:22.443Z,12.40
2023-03-15T00:51:50.297Z,12.00
2023-03-15T00:54:18.110Z,11.00
2023-03-15T00:56:45.888Z,9.90
2023-03-15T00:59:13.974Z,11.00
2023-03-15T01:01:44.750Z,10.80
2023-03-15T01:04:12.693Z,11.70
2023-03-15T01:06:42.427Z,11.30
2023-03-15T01:09:10.541Z,12.90
2023-03-15T01:11:38.427Z,12.60
2023-03-15T01:14:08.803Z,12.70
2023-03-15T01:16:37.866Z,11.30
2023-03-15T01:19:05.869Z,10.80
2023-03-15T01:21:33.804Z,10.30
2023-03-15T01:24:01.621Z,9.20
2023-03-15T01:26:29.521Z,9.70
2023-03-15T01:28:57.641Z,8.80
2023-03-15T01:31:28.897Z,9.20
2023-03-15T01:33:57.880Z,9.50
2023-03-15T01:36:27.469Z,9.40
2023-03-15T01:38:55.975Z,10.40
2023-03-15T01:41:32.631Z,9.20
2023-03-15T01:44:00.550Z,7.50
2023-03-15T01:46:34.808Z,5.50
2023-03-15T01:49:23.489Z,5.80
2023-03-15T01:52:12.976Z,6.30
2023-03-15T01:54:57.074Z,5.80
2023-03-15T02:00:08.979Z,8.30
2023-03-15T02:02:51.990Z,7.20
2023-03-15T02:05:29.597Z,6.10
2023-03-15T02:07:57.607Z,7.10
2023-03-15T02:10:35.743Z,7.20
2023-03-15T02:13:05.170Z,7.00
2023-03-15T02:15:33.327Z,6.90
2023-03-15T02:18:02.793Z,6.90
2023-03-15T02:20:51.009Z,6.70
2023-03-15T02:23:23.389Z,6.30
2023-03-15T02:26:06.909Z,6.70
2023-03-15T02:28:35.124Z,6.20
2023-03-15T02:31:03.615Z,6.20
2023-03-15T02:33:39.570Z,6.80
2023-03-15T02:36:24.915Z,6.80
2023-03-15T02:38:54.677Z,7.10
2023-03-15T02:41:33.986Z,7.60
2023-03-15T02:44:08.511Z,6.70
2023-03-15T02:46:37.928Z,6.70
2023-03-15T02:49:09.179Z,7.10
2023-03-15T02:51:37.089Z,6.90
2023-03-15T02:54:05.416Z,6.60
2023-03-15T02:56:33.661Z,6.20
2023-03-15T02:59:02.028Z,6.30
2023-03-15T03:01:31.753Z,6.40
2023-03-15T03:03:59.845Z,5.40
2023-03-15T03:06:27.820Z,6.30
2023-03-15T03:08:56.368Z,6.40
2023-03-15T03:11:24.799Z,8.60
2023-03-15T03:13:53.175Z,6.30
2023-03-15T03:16:23.187Z,7.30
2023-03-15T03:18:51.437Z,6.90
2023-03-15T03:21:19.842Z,7.60
2023-03-15T03:23:48.181Z,6.90
2023-03-15T03:26:19.073Z,6.30
2023-03-15T03:28:50.130Z,5.80
2023-03-15T03:31:22.370Z,6.60
2023-03-15T03:33:50.784Z,6.40
2023-03-15T03:36:19.572Z,7.40
2023-03-15T03:39:20.255Z,6.60
2023-03-15T03:43:17.105Z,15.00
2023-03-15T03:47:01.118Z,8.00
2023-03-15T03:54:06.010Z,6.90
2023-03-15T03:57:57.236Z,6.60
2023-03-15T04:01:39.558Z,5.80
2023-03-15T04:05:32.859Z,6.00
2023-03-15T04:09:15.267Z,7.80
2023-03-15T04:12:54.241Z,8.00
2023-03-15T04:20:20.769Z,4.80
2023-03-15T04:23:56.356Z,4.70
2023-03-15T04:31:23.321Z,4.70
2023-03-15T04:34:58.261Z,4.30
2023-03-15T04:38:30.292Z,4.90
2023-03-15T04:42:04.338Z,6.30
2023-03-15T04:45:48.230Z,4.70
2023-03-15T04:49:09.504Z,6.50
2023-03-15T04:56:12.730Z,3.90
2023-03-15T04:59:58.583Z,4.60
2023-03-15T05:03:53.262Z,3.50
2023-03-15T05:07:23.260Z,3.60
2023-03-15T05:10:49.251Z,4.00
2023-03-15T05:14:19.286Z,5.60
2023-03-15T05:17:58.802Z,3.30
2023-03-15T05:21:30.264Z,3.90
2023-03-15T05:25:04.313Z,3.70
2023-03-15T05:28:41.345Z,4.30
2023-03-15T05:32:15.312Z,5.00
2023-03-15T05:36:02.632Z,4.40
2023-03-15T05:39:37.255Z,11.50
2023-03-15T05:43:20.380Z,9.90
2023-03-15T05:47:01.344Z,4.40
2023-03-15T05:50:40.310Z,3.90
2023-03-15T06:01:19.372Z,3.40
2023-03-15T06:11:27.328Z,4.30
2023-03-15T06:15:05.318Z,4.00
2023-03-15T06:18:40.388Z,4.20
2023-03-15T06:22:17.274Z,4.50
2023-03-15T06:25:47.300Z,3.90
2023-03-15T06:29:19.794Z,4.10
2023-03-15T06:32:51.705Z,4.60
2023-03-15T06:39:03.113Z,7.10
2023-03-15T06:42:25.980Z,8.10
2023-03-15T06:45:11.403Z,6.40
2023-03-15T06:51:33.029Z,3.60
2023-03-15T06:54:14.481Z,4.30
2023-03-15T06:57:20.363Z,4.90
2023-03-15T07:01:19.108Z,4.70
2023-03-15T07:05:29.018Z,5.60
2023-03-15T07:09:46.633Z,5.30
2023-03-15T07:13:32.427Z,4.80
2023-03-15T07:28:47.034Z,4.90
2023-03-15T07:32:38.559Z,5.50
2023-03-15T07:53:53.073Z,7.60
2023-03-15T08:32:44.576Z,8.20
2023-03-15T08:54:25.424Z,7.70
2023-03-15T09:18:59.602Z,5.90
2023-03-15T10:10:36.185Z,6.70
2023-03-15T10:17:06.328Z,9.70
2023-03-15T10:20:43.482Z,6.80
2023-03-15T10:24:07.276Z,8.20
2023-03-15T10:27:35.585Z,7.80
2023-03-15T10:31:22.515Z,9.80
2023-03-15T10:42:33.713Z,8.10
2023-03-15T10:49:27.490Z,8.40
2023-03-15T10:59:49.596Z,6.90
2023-03-15T12:08:22.648Z,5.60
2023-03-15T13:50:51.145Z,6.20
2023-03-15T13:58:00.341Z,5.70
2023-03-15T14:01:51.861Z,5.10
2023-03-15T14:12:31.320Z,5.50
2023-03-15T14:16:11.381Z,6.40
2023-03-15T14:19:54.396Z,7.40
2023-03-15T14:23:31.441Z,8.70
2023-03-15T14:27:14.306Z,10.40
2023-03-15T14:30:59.294Z,12.10
2023-03-15T14:50:28.964Z,9.70
2023-03-15T14:53:59.423Z,9.60
2023-03-15T14:57:29.311Z,10.20
2023-03-15T15:01:05.386Z,10.80
2023-03-15T15:08:09.368Z,10.80
2023-03-15T15:14:54.393Z,10.60
2023-03-15T15:17:30.388Z,10.50
2023-03-15T15:19:59.618Z,11.10
2023-03-15T15:22:27.823Z,11.20
2023-03-15T15:24:58.222Z,11.50
2023-03-15T15:27:29.052Z,11.60
2023-03-15T15:29:57.019Z,10.90
2023-03-15T15:32:25.100Z,10.80
2023-03-15T15:34:55.726Z,11.10
2023-03-15T15:37:24.535Z,12.00
2023-03-15T15:39:56.299Z,10.20
2023-03-15T15:42:24.508Z,11.00
2023-03-15T15:44:52.979Z,9.90
2023-03-15T15:47:24.394Z,10.00
2023-03-15T15:49:52.826Z,9.00
2023-03-15T15:56:01.539Z,11.20
2023-03-15T16:03:13.522Z,12.00
2023-03-15T16:05:53.768Z,10.90
2023-03-15T16:08:25.644Z,10.20
2023-03-15T16:10:53.892Z,8.20
2023-03-15T16:13:27.107Z,8.40
2023-03-15T16:15:55.392Z,8.90
2023-03-15T16:18:23.803Z,8.00
2023-03-15T16:20:52.154Z,8.50
2023-03-15T16:23:25.849Z,7.70
2023-03-15T16:26:31.387Z,8.40
2023-03-15T16:30:26.296Z,8.70
2023-03-15T16:37:40.268Z,7.50
2023-03-15T16:41:17.199Z,8.40
2023-03-15T16:44:17.818Z,7.60
2023-03-15T16:46:53.489Z,7.60
2023-03-15T16:49:27.117Z,8.10
2023-03-15T16:51:58.645Z,8.00
2023-03-15T16:54:40.657Z,7.50
2023-03-15T16:57:38.651Z,7.10
2023-03-15T17:00:16.732Z,6.70
2023-03-15T17:02:49.700Z,7.60
2023-03-15T17:05:20.990Z,7.40
2023-03-15T17:07:54.391Z,7.90
2023-03-15T17:10:27.388Z,8.30
2023-03-15T17:13:03.799Z,7.90
2023-03-15T17:15:32.494Z,8.90
2023-03-15T17:18:24.626Z,8.90
2023-03-15T17:21:02.558Z,8.80
2023-03-15T17:23:36.558Z,8.30
2023-03-15T17:26:06.568Z,7.50
2023-03-15T17:28:43.558Z,6.90
2023-03-15T17:31:24.931Z,6.80
2023-03-15T17:33:56.496Z,7.00
2023-03-15T17:36:33.581Z,8.10
2023-03-15T17:39:21.994Z,7.80
2023-03-15T17:41:54.519Z,7.70
2023-03-15T17:44:23.483Z,7.90
2023-03-15T17:46:56.445Z,7.10
2023-03-15T17:49:45.172Z,6.50
2023-03-15T17:52:17.287Z,6.40
2023-03-15T17:55:16.307Z,6.90
2023-03-15T17:59:01.326Z,6.80
2023-03-15T18:02:37.039Z,6.90
2023-03-15T18:06:09.383Z,7.50
2023-03-15T18:13:16.302Z,6.30
2023-03-15T18:16:56.298Z,5.50
2023-03-15T18:20:56.338Z,6.20
2023-03-15T18:24:35.350Z,6.80
2023-03-15T18:28:01.334Z,5.70
2023-03-15T18:31:37.265Z,6.10
2023-03-15T18:42:12.340Z,5.50
2023-03-15T18:45:54.385Z,4.90
2023-03-15T18:50:04.426Z,4.50
2023-03-15T18:53:28.310Z,4.90
2023-03-15T18:56:58.296Z,5.90
2023-03-15T19:00:43.427Z,4.60
2023-03-15T19:04:13.303Z,4.10
2023-03-15T19:07:48.315Z,4.00
2023-03-15T19:14:50.271Z,3.00
2023-03-15T19:18:24.647Z,4.80
2023-03-15T19:22:02.546Z,3.00
2023-03-15T19:30:56.331Z,2.10
2023-03-15T19:34:35.380Z,2.60
2023-03-15T19:38:12.308Z,2.10
2023-03-15T19:45:00.027Z,2.50
2023-03-15T19:48:11.249Z,2.50
2023-03-15T19:51:08.281Z,2.90
2023-03-15T19:53:37.031Z,3.00
2023-03-15T19:56:26.242Z,2.00
2023-03-15T19:59:07.772Z,3.50
2023-03-15T20:01:43.180Z,2.10
2023-03-15T20:04:13.110Z,2.00
2023-03-15T20:07:02.780Z,3.00
2023-03-15T20:09:31.266Z,2.20
2023-03-15T20:12:04.582Z,2.70
2023-03-15T20:14:32.815Z,3.30
2023-03-15T20:17:02.305Z,1.90
2023-03-15T20:19:40.914Z,2.50
2023-03-15T20:22:09.043Z,1.80
2023-03-15T20:24:37.549Z,1.70
2023-03-15T20:27:08.691Z,1.70
2023-03-15T20:29:38.808Z,1.40
2023-03-15T20:32:07.301Z,1.40
2023-03-15T20:34:36.293Z,1.60
2023-03-15T20:37:04.234Z,1.50
2023-03-15T20:39:32.299Z,1.40
2023-03-15T20:42:00.677Z,1.60
2023-03-15T20:44:43.622Z,2.30
2023-03-15T20:47:11.907Z,1.30
2023-03-15T20:49:40.482Z,1.00
2023-03-15T20:52:12.692Z,1.40
2023-03-15T20:54:41.455Z,1.30
2023-03-15T20:57:10.044Z,2.10
2023-03-15T20:59:38.285Z,1.80
2023-03-15T21:02:07.071Z,5.80
2023-03-15T21:04:35.381Z,2.50
2023-03-15T21:07:04.463Z,8.40
2023-03-15T21:09:33.237Z,2.20
2023-03-15T21:12:02.348Z,3.30
2023-03-15T21:15:03.456Z,1.60
2023-03-15T21:17:34.871Z,1.20
2023-03-15T21:20:05.631Z,1.60
2023-03-15T21:22:33.916Z,1.50
2023-03-15T21:25:02.797Z,1.90
2023-03-15T21:27:33.037Z,1.40
2023-03-15T21:30:01.537Z,1.10
2023-03-15T21:32:31.152Z,1.20
2023-03-15T21:34:59.569Z,1.40
2023-03-15T21:37:27.469Z,0.90
2023-03-15T21:39:56.146Z,1.40
2023-03-15T21:42:26.001Z,0.90
2023-03-15T21:44:54.793Z,0.80
2023-03-15T21:47:23.403Z,1.10
2023-03-15T21:50:27.575Z,0.80
2023-03-15T21:54:16.241Z,0.90
2023-03-15T21:57:53.627Z,0.80
2023-03-15T22:01:33.325Z,0.60
2023-03-15T22:05:32.660Z,0.80
2023-03-15T22:09:31.255Z,0.90
2023-03-15T22:13:18.206Z,0.90
2023-03-15T22:16:46.415Z,0.90
2023-03-15T22:20:22.706Z,0.70
2023-03-15T22:24:21.235Z,0.90
2023-03-15T22:28:31.969Z,0.90
2023-03-15T22:31:59.310Z,1.00
2023-03-15T22:35:35.320Z,0.80
2023-03-15T22:39:08.182Z,0.70
2023-03-15T22:42:47.288Z,0.60
2023-03-15T22:46:35.156Z,0.70
2023-03-15T22:50:10.227Z,0.70
2023-03-15T22:53:44.390Z,0.80
2023-03-15T22:57:22.218Z,0.70
2023-03-15T23:18:46.317Z,0.60
2023-03-15T23:22:19.292Z,0.40
2023-03-15T23:25:51.312Z,0.60
2023-03-15T23:29:40.642Z,0.50
2023-03-15T23:33:10.429Z,0.50
